Simcha — PE7688 — position and weather

sailwx.info

Track history (hours):
 
Tides and Currents Weather Stations Pressure Air Temp Water Temp Dewpoint Dewpoint Depression Visibility Wind Speed Wind Dir Waves Ship Positions

Simcha

Last reported at 2015-Apr-21 18:33 UTC. Time now 2015-Apr-21 19:05 UTC.
Position N 53°24' E 006°57'.

Length 110 m.

Type: Ship. MMSI: 244780014.

Date/timePositionNaut miles runAvg speedWind from/ knotsBaromVisibWave heightAir tempDewpointWater temp
2015-Apr-21 18:33N 53°24' E 006°57'6 5.1
2015-Apr-21 17:28N 53°27' E 006°49'0 0.0
2015-Apr-21 16:33N 53°27' E 006°49'0 0.0
2015-Apr-21 15:33N 53°27' E 006°49'0 0.0
2015-Apr-21 14:33N 53°27' E 006°49'0 0.0
2015-Apr-21 10:33N 53°27' E 006°49'0 0.0
2015-Apr-21 09:26N 53°27' E 006°49'0 0.0
2015-Apr-21 08:18N 53°27' E 006°49'0 0.0
2015-Apr-21 07:17N 53°27' E 006°49'0 0.0
2015-Apr-21 05:31N 53°27' E 006°49'0 0.0
2015-Apr-20 21:09N 53°27' E 006°49'0 0.0
2015-Apr-20 20:24N 53°27' E 006°49'0 0.1
2015-Apr-20 19:32N 53°27' E 006°50'0 0.1
2015-Apr-20 18:34N 53°27' E 006°49'0 0.0
2015-Apr-20 17:29N 53°27' E 006°49'0 0.0
2015-Apr-20 16:32N 53°27' E 006°49'0 0.0
2015-Apr-20 15:29N 53°27' E 006°49'0 0.0
2015-Apr-20 14:32N 53°27' E 006°49'0 0.0
2015-Apr-20 13:33N 53°27' E 006°49'0 0.0
2015-Apr-20 12:34N 53°27' E 006°49'0 0.0
2015-Apr-19 23:13N 53°27' E 006°49'0 0.0
2015-Apr-19 22:25N 53°27' E 006°49'4 0.9
2015-Apr-19 17:27N 53°25' E 006°56'6 6.9
2015-Apr-19 16:34N 53°19' E 006°58'3 3.3
2015-Apr-19 15:33N 53°19' E 006°52'10 5.0
2015-Apr-19 13:33N 53°14' E 006°37'46 2.0
2015-Apr-18 14:29N 52°47' E 005°36'7 7.5
2015-Apr-18 13:33N 52°40' E 005°34'9 7.2
2015-Apr-18 12:20N 52°35' E 005°46'5 6.7
2015-Apr-18 11:33N 52°34' E 005°55'5 4.7
2015-Apr-18 10:34N 52°31' E 006°01'81 4.0
2015-Apr-17 14:18N 51°15' E 006°45'4 5.6
2015-Apr-17 13:34N 51°11' E 006°46'  
2015-Apr-12 05:11N 50°51' E 006°60'  
Track history (hours):
 
Tides and Currents Weather Stations Pressure Air Temp Water Temp Dewpoint Dewpoint Depression Visibility Wind Speed Wind Dir Waves Ship Positions

Simcha

Last reported at 2015-Apr-21 18:33 UTC. Time now 2015-Apr-21 19:05 UTC.
Position N 53°24' E 006°57'.

Length 110 m.

Type: Ship. MMSI: 244780014.

Date/timePositionNaut miles runAvg speedWind from/ knotsBaromVisibWave heightAir tempDewpointWater temp
2015-Apr-21 18:33N 53°24' E 006°57'6 5.1
2015-Apr-21 17:28N 53°27' E 006°49'0 0.0
2015-Apr-21 16:33N 53°27' E 006°49'0 0.0
2015-Apr-21 15:33N 53°27' E 006°49'0 0.0
2015-Apr-21 14:33N 53°27' E 006°49'0 0.0
2015-Apr-21 10:33N 53°27' E 006°49'0 0.0
2015-Apr-21 09:26N 53°27' E 006°49'0 0.0
2015-Apr-21 08:18N 53°27' E 006°49'0 0.0
2015-Apr-21 07:17N 53°27' E 006°49'0 0.0
2015-Apr-21 05:31N 53°27' E 006°49'0 0.0
2015-Apr-20 21:09N 53°27' E 006°49'0 0.0
2015-Apr-20 20:24N 53°27' E 006°49'0 0.1
2015-Apr-20 19:32N 53°27' E 006°50'0 0.1
2015-Apr-20 18:34N 53°27' E 006°49'0 0.0
2015-Apr-20 17:29N 53°27' E 006°49'0 0.0
2015-Apr-20 16:32N 53°27' E 006°49'0 0.0
2015-Apr-20 15:29N 53°27' E 006°49'0 0.0
2015-Apr-20 14:32N 53°27' E 006°49'0 0.0
2015-Apr-20 13:33N 53°27' E 006°49'0 0.0
2015-Apr-20 12:34N 53°27' E 006°49'0 0.0
2015-Apr-19 23:13N 53°27' E 006°49'0 0.0
2015-Apr-19 22:25N 53°27' E 006°49'4 0.9
2015-Apr-19 17:27N 53°25' E 006°56'6 6.9
2015-Apr-19 16:34N 53°19' E 006°58'3 3.3
2015-Apr-19 15:33N 53°19' E 006°52'10 5.0
2015-Apr-19 13:33N 53°14' E 006°37'46 2.0
2015-Apr-18 14:29N 52°47' E 005°36'7 7.5
2015-Apr-18 13:33N 52°40' E 005°34'9 7.2
2015-Apr-18 12:20N 52°35' E 005°46'5 6.7
2015-Apr-18 11:33N 52°34' E 005°55'5 4.7
2015-Apr-18 10:34N 52°31' E 006°01'81 4.0
2015-Apr-17 14:18N 51°15' E 006°45'4 5.6
2015-Apr-17 13:34N 51°11' E 006°46'  
2015-Apr-12 05:11N 50°51' E 006°60'  

Dump ship's entire track history